sensor_id;sensor_type;location;lat;lon;timestamp;P1;durP1;ratioP1;P2;durP2;ratioP2
18748;SDS011;9503;53.560;10.246;2023-02-28T07:02:32;4.70;;;2.70;;
18748;SDS011;9503;53.560;10.246;2023-02-28T07:04:58;2.53;;;2.00;;
18748;SDS011;9503;53.560;10.246;2023-02-28T07:07:25;4.63;;;2.20;;
18748;SDS011;9503;53.560;10.246;2023-02-28T07:09:52;2.07;;;1.90;;
18748;SDS011;9503;53.560;10.246;2023-02-28T07:12:19;2.07;;;1.70;;
18748;SDS011;9503;53.560;10.246;2023-02-28T07:14:46;3.80;;;1.80;;
18748;SDS011;9503;53.560;10.246;2023-02-28T07:17:12;3.80;;;1.70;;
18748;SDS011;9503;53.560;10.246;2023-02-28T07:19:41;2.33;;;1.80;;
18748;SDS011;9503;53.560;10.246;2023-02-28T07:22:07;2.20;;;1.97;;
18748;SDS011;9503;53.560;10.246;2023-02-28T07:24:34;3.90;;;2.80;;
18748;SDS011;9503;53.560;10.246;2023-02-28T07:27:01;2.97;;;2.50;;
18748;SDS011;9503;53.560;10.246;2023-02-28T07:29:28;4.27;;;2.93;;
18748;SDS011;9503;53.560;10.246;2023-02-28T07:31:55;3.73;;;2.80;;
18748;SDS011;9503;53.560;10.246;2023-02-28T07:34:23;6.43;;;3.20;;
18748;SDS011;9503;53.560;10.246;2023-02-28T07:36:53;6.20;;;3.30;;
18748;SDS011;9503;53.560;10.246;2023-02-28T07:39:21;5.10;;;3.50;;
18748;SDS011;9503;53.560;10.246;2023-02-28T07:41:47;5.77;;;3.83;;
18748;SDS011;9503;53.560;10.246;2023-02-28T07:44:14;7.87;;;4.50;;
18748;SDS011;9503;53.560;10.246;2023-02-28T07:46:41;10.63;;;4.17;;
18748;SDS011;9503;53.560;10.246;2023-02-28T07:49:07;10.03;;;3.87;;
18748;SDS011;9503;53.560;10.246;2023-02-28T07:51:34;5.87;;;3.30;;
18748;SDS011;9503;53.560;10.246;2023-02-28T07:54:02;10.80;;;3.80;;
18748;SDS011;9503;53.560;10.246;2023-02-28T07:56:29;7.60;;;3.67;;
18748;SDS011;9503;53.560;10.246;2023-02-28T07:58:56;6.90;;;3.57;;
18748;SDS011;9503;53.560;10.246;2023-02-28T08:01:22;8.50;;;3.47;;
18748;SDS011;9503;53.560;10.246;2023-02-28T08:03:49;5.47;;;3.40;;
18748;SDS011;9503;53.560;10.246;2023-02-28T08:06:16;7.40;;;4.43;;
18748;SDS011;9503;53.560;10.246;2023-02-28T08:08:45;4.40;;;3.10;;
18748;SDS011;9503;53.560;10.246;2023-02-28T08:11:13;5.33;;;3.20;;
18748;SDS011;9503;53.560;10.246;2023-02-28T08:13:41;8.37;;;2.90;;
18748;SDS011;9503;53.560;10.246;2023-02-28T08:16:09;4.13;;;2.83;;
18748;SDS011;9503;53.560;10.246;2023-02-28T08:18:36;4.80;;;3.40;;
18748;SDS011;9503;53.560;10.246;2023-02-28T08:21:05;6.70;;;3.10;;
18748;SDS011;9503;53.560;10.246;2023-02-28T08:23:32;5.17;;;3.27;;
18748;SDS011;9503;53.560;10.246;2023-02-28T08:26:00;6.63;;;3.33;;
18748;SDS011;9503;53.560;10.246;2023-02-28T08:28:28;5.73;;;3.87;;
18748;SDS011;9503;53.560;10.246;2023-02-28T08:30:55;6.33;;;3.20;;
18748;SDS011;9503;53.560;10.246;2023-02-28T08:33:22;6.23;;;3.00;;
18748;SDS011;9503;53.560;10.246;2023-02-28T08:35:50;5.80;;;3.50;;
18748;SDS011;9503;53.560;10.246;2023-02-28T08:38:18;5.90;;;3.50;;
18748;SDS011;9503;53.560;10.246;2023-02-28T08:40:45;6.23;;;3.60;;
18748;SDS011;9503;53.560;10.246;2023-02-28T08:43:12;10.67;;;5.17;;
18748;SDS011;9503;53.560;10.246;2023-02-28T08:45:40;6.10;;;3.40;;
18748;SDS011;9503;53.560;10.246;2023-02-28T08:48:06;8.07;;;3.70;;
18748;SDS011;9503;53.560;10.246;2023-02-28T08:50:33;5.50;;;3.17;;
18748;SDS011;9503;53.560;10.246;2023-02-28T08:53:00;6.40;;;3.40;;
18748;SDS011;9503;53.560;10.246;2023-02-28T08:55:26;9.87;;;3.80;;
18748;SDS011;9503;53.560;10.246;2023-02-28T08:57:53;5.57;;;3.77;;
18748;SDS011;9503;53.560;10.246;2023-02-28T09:00:20;6.57;;;3.07;;
18748;SDS011;9503;53.560;10.246;2023-02-28T09:02:49;6.87;;;3.03;;
18748;SDS011;9503;53.560;10.246;2023-02-28T09:05:15;4.17;;;2.73;;
18748;SDS011;9503;53.560;10.246;2023-02-28T09:07:42;7.13;;;2.80;;
18748;SDS011;9503;53.560;10.246;2023-02-28T09:10:09;4.77;;;2.67;;
18748;SDS011;9503;53.560;10.246;2023-02-28T09:12:36;8.03;;;3.07;;
18748;SDS011;9503;53.560;10.246;2023-02-28T09:15:03;4.10;;;2.30;;
18748;SDS011;9503;53.560;10.246;2023-02-28T09:17:31;6.10;;;2.87;;
18748;SDS011;9503;53.560;10.246;2023-02-28T09:19:59;7.40;;;2.30;;
18748;SDS011;9503;53.560;10.246;2023-02-28T09:22:25;4.33;;;2.10;;
18748;SDS011;9503;53.560;10.246;2023-02-28T09:24:52;2.53;;;2.23;;
18748;SDS011;9503;53.560;10.246;2023-02-28T09:27:18;2.57;;;1.70;;
18748;SDS011;9503;53.560;10.246;2023-02-28T09:29:45;3.50;;;2.00;;
18748;SDS011;9503;53.560;10.246;2023-02-28T09:32:12;3.50;;;1.83;;
18748;SDS011;9503;53.560;10.246;2023-02-28T09:34:38;1.93;;;1.30;;
18748;SDS011;9503;53.560;10.246;2023-02-28T09:37:06;1.13;;;1.13;;
18748;SDS011;9503;53.560;10.246;2023-02-28T09:39:33;2.30;;;1.50;;
18748;SDS011;9503;53.560;10.246;2023-02-28T09:41:59;3.17;;;1.50;;
18748;SDS011;9503;53.560;10.246;2023-02-28T09:44:30;3.17;;;1.77;;
18748;SDS011;9503;53.560;10.246;2023-02-28T09:47:01;4.17;;;2.03;;
18748;SDS011;9503;53.560;10.246;2023-02-28T09:49:36;1.97;;;1.47;;
18748;SDS011;9503;53.560;10.246;2023-02-28T09:52:09;3.23;;;1.47;;
18748;SDS011;9503;53.560;10.246;2023-02-28T09:54:37;2.50;;;1.40;;
18748;SDS011;9503;53.560;10.246;2023-02-28T09:57:06;2.83;;;1.60;;
18748;SDS011;9503;53.560;10.246;2023-02-28T09:59:40;1.80;;;1.60;;
18748;SDS011;9503;53.560;10.246;2023-02-28T10:02:21;2.70;;;1.63;;
18748;SDS011;9503;53.560;10.246;2023-02-28T10:05:07;2.50;;;1.67;;
18748;SDS011;9503;53.560;10.246;2023-02-28T10:07:42;2.37;;;1.63;;
18748;SDS011;9503;53.560;10.246;2023-02-28T10:10:28;1.57;;;1.47;;
18748;SDS011;9503;53.560;10.246;2023-02-28T10:12:58;1.37;;;1.27;;
18748;SDS011;9503;53.560;10.246;2023-02-28T10:15:29;1.93;;;1.07;;
18748;SDS011;9503;53.560;10.246;2023-02-28T10:17:58;1.90;;;1.30;;
18748;SDS011;9503;53.560;10.246;2023-02-28T10:20:29;3.73;;;1.37;;
18748;SDS011;9503;53.560;10.246;2023-02-28T10:23:02;2.27;;;1.60;;
18748;SDS011;9503;53.560;10.246;2023-02-28T10:25:36;2.43;;;1.50;;
18748;SDS011;9503;53.560;10.246;2023-02-28T10:28:07;4.37;;;2.63;;
18748;SDS011;9503;53.560;10.246;2023-02-28T10:30:37;2.60;;;1.50;;
18748;SDS011;9503;53.560;10.246;2023-02-28T10:33:08;3.50;;;2.00;;
18748;SDS011;9503;53.560;10.246;2023-02-28T10:35:45;1.57;;;1.40;;
18748;SDS011;9503;53.560;10.246;2023-02-28T10:38:16;1.80;;;1.70;;
18748;SDS011;9503;53.560;10.246;2023-02-28T10:40:44;2.73;;;1.73;;
18748;SDS011;9503;53.560;10.246;2023-02-28T10:43:18;1.67;;;1.50;;
18748;SDS011;9503;53.560;10.246;2023-02-28T10:45:52;1.40;;;1.30;;
18748;SDS011;9503;53.560;10.246;2023-02-28T10:48:27;2.10;;;1.30;;
18748;SDS011;9503;53.560;10.246;2023-02-28T10:50:56;3.17;;;1.40;;
18748;SDS011;9503;53.560;10.246;2023-02-28T10:53:28;2.30;;;1.70;;
18748;SDS011;9503;53.560;10.246;2023-02-28T10:55:59;2.23;;;1.50;;
18748;SDS011;9503;53.560;10.246;2023-02-28T10:58:28;2.47;;;1.77;;
18748;SDS011;9503;53.560;10.246;2023-02-28T11:00:57;2.70;;;1.43;;
18748;SDS011;9503;53.560;10.246;2023-02-28T11:03:28;2.53;;;1.60;;
18748;SDS011;9503;53.560;10.246;2023-02-28T11:05:56;1.33;;;1.20;;
18748;SDS011;9503;53.560;10.246;2023-02-28T11:08:24;1.70;;;1.20;;
18748;SDS011;9503;53.560;10.246;2023-02-28T11:10:55;3.43;;;1.67;;
18748;SDS011;9503;53.560;10.246;2023-02-28T11:13:25;2.07;;;1.50;;
18748;SDS011;9503;53.560;10.246;2023-02-28T11:15:55;2.07;;;1.60;;
18748;SDS011;9503;53.560;10.246;2023-02-28T11:18:24;2.60;;;1.60;;
18748;SDS011;9503;53.560;10.246;2023-02-28T11:20:55;1.63;;;1.50;;
18748;SDS011;9503;53.560;10.246;2023-02-28T11:23:26;6.07;;;1.87;;
18748;SDS011;9503;53.560;10.246;2023-02-28T11:25:56;1.67;;;1.50;;
18748;SDS011;9503;53.560;10.246;2023-02-28T11:28:26;1.80;;;1.37;;
18748;SDS011;9503;53.560;10.246;2023-02-28T11:31:02;2.03;;;1.90;;
18748;SDS011;9503;53.560;10.246;2023-02-28T11:33:31;2.40;;;1.80;;
18748;SDS011;9503;53.560;10.246;2023-02-28T11:35:59;3.17;;;1.70;;
18748;SDS011;9503;53.560;10.246;2023-02-28T11:38:28;5.17;;;1.90;;
18748;SDS011;9503;53.560;10.246;2023-02-28T11:41:04;3.23;;;1.70;;
18748;SDS011;9503;53.560;10.246;2023-02-28T11:43:44;2.73;;;1.87;;
18748;SDS011;9503;53.560;10.246;2023-02-28T11:46:26;2.03;;;1.40;;
18748;SDS011;9503;53.560;10.246;2023-02-28T11:49:04;2.07;;;1.70;;
18748;SDS011;9503;53.560;10.246;2023-02-28T11:51:46;3.70;;;1.97;;
18748;SDS011;9503;53.560;10.246;2023-02-28T11:54:28;2.80;;;1.80;;
18748;SDS011;9503;53.560;10.246;2023-02-28T11:57:12;2.17;;;1.83;;
18748;SDS011;9503;53.560;10.246;2023-02-28T11:59:53;3.83;;;2.00;;
18748;SDS011;9503;53.560;10.246;2023-02-28T12:02:35;2.87;;;2.30;;
18748;SDS011;9503;53.560;10.246;2023-02-28T12:05:18;3.00;;;1.80;;
18748;SDS011;9503;53.560;10.246;2023-02-28T12:07:59;4.27;;;1.90;;
18748;SDS011;9503;53.560;10.246;2023-02-28T12:10:33;2.70;;;1.70;;
18748;SDS011;9503;53.560;10.246;2023-02-28T12:13:11;2.27;;;1.77;;
18748;SDS011;9503;53.560;10.246;2023-02-28T12:15:56;3.33;;;1.90;;
18748;SDS011;9503;53.560;10.246;2023-02-28T12:18:42;2.37;;;2.00;;
18748;SDS011;9503;53.560;10.246;2023-02-28T12:21:25;3.87;;;1.60;;
18748;SDS011;9503;53.560;10.246;2023-02-28T12:26:55;3.20;;;1.80;;
18748;SDS011;9503;53.560;10.246;2023-02-28T12:29:28;2.87;;;2.23;;
18748;SDS011;9503;53.560;10.246;2023-02-28T12:31:58;2.17;;;1.93;;
18748;SDS011;9503;53.560;10.246;2023-02-28T12:34:31;3.50;;;2.20;;
18748;SDS011;9503;53.560;10.246;2023-02-28T12:37:03;2.47;;;1.50;;
18748;SDS011;9503;53.560;10.246;2023-02-28T12:39:34;3.77;;;1.93;;
18748;SDS011;9503;53.560;10.246;2023-02-28T12:42:05;3.87;;;1.90;;
18748;SDS011;9503;53.560;10.246;2023-02-28T12:44:40;3.07;;;1.90;;
18748;SDS011;9503;53.560;10.246;2023-02-28T12:47:12;1.97;;;1.70;;
18748;SDS011;9503;53.560;10.246;2023-02-28T12:49:41;1.60;;;1.50;;
18748;SDS011;9503;53.560;10.246;2023-02-28T12:52:12;3.37;;;2.10;;
18748;SDS011;9503;53.560;10.246;2023-02-28T12:54:43;2.30;;;1.90;;
18748;SDS011;9503;53.560;10.246;2023-02-28T12:57:15;3.83;;;1.90;;
18748;SDS011;9503;53.560;10.246;2023-02-28T12:59:53;4.20;;;1.70;;
18748;SDS011;9503;53.560;10.246;2023-02-28T13:02:33;3.87;;;2.10;;
18748;SDS011;9503;53.560;10.246;2023-02-28T13:05:22;3.00;;;2.10;;
18748;SDS011;9503;53.560;10.246;2023-02-28T13:08:14;2.13;;;1.67;;
18748;SDS011;9503;53.560;10.246;2023-02-28T13:10:53;2.43;;;1.90;;
18748;SDS011;9503;53.560;10.246;2023-02-28T13:13:20;2.87;;;2.03;;
18748;SDS011;9503;53.560;10.246;2023-02-28T13:16:04;3.27;;;1.83;;
18748;SDS011;9503;53.560;10.246;2023-02-28T13:18:33;2.23;;;2.03;;
18748;SDS011;9503;53.560;10.246;2023-02-28T13:21:02;4.47;;;2.10;;
18748;SDS011;9503;53.560;10.246;2023-02-28T13:23:39;4.57;;;1.70;;
18748;SDS011;9503;53.560;10.246;2023-02-28T13:26:23;4.30;;;2.00;;
18748;SDS011;9503;53.560;10.246;2023-02-28T13:29:28;2.30;;;1.70;;
18748;SDS011;9503;53.560;10.246;2023-02-28T13:40:51;1.60;;;1.50;;
18748;SDS011;9503;53.560;10.246;2023-02-28T13:43:18;2.67;;;1.60;;
18748;SDS011;9503;53.560;10.246;2023-02-28T13:46:04;3.00;;;1.80;;
18748;SDS011;9503;53.560;10.246;2023-02-28T13:48:35;2.90;;;1.70;;
18748;SDS011;9503;53.560;10.246;2023-02-28T13:53:57;2.83;;;1.83;;
18748;SDS011;9503;53.560;10.246;2023-02-28T13:56:33;2.23;;;1.60;;
18748;SDS011;9503;53.560;10.246;2023-02-28T13:59:13;2.13;;;1.80;;
18748;SDS011;9503;53.560;10.246;2023-02-28T14:01:51;4.40;;;1.70;;
18748;SDS011;9503;53.560;10.246;2023-02-28T14:07:30;3.93;;;1.80;;
18748;SDS011;9503;53.560;10.246;2023-02-28T14:10:01;2.53;;;1.70;;
18748;SDS011;9503;53.560;10.246;2023-02-28T14:15:27;2.83;;;1.97;;
18748;SDS011;9503;53.560;10.246;2023-02-28T14:18:29;1.90;;;1.40;;
18748;SDS011;9503;53.560;10.246;2023-02-28T14:21:01;2.00;;;1.50;;
18748;SDS011;9503;53.560;10.246;2023-02-28T14:23:42;2.30;;;1.40;;
18748;SDS011;9503;53.560;10.246;2023-02-28T14:26:19;1.47;;;1.33;;
18748;SDS011;9503;53.560;10.246;2023-02-28T14:29:02;3.37;;;1.90;;
18748;SDS011;9503;53.560;10.246;2023-02-28T14:31:44;3.93;;;1.80;;
18748;SDS011;9503;53.560;10.246;2023-02-28T14:34:21;1.70;;;1.50;;
18748;SDS011;9503;53.560;10.246;2023-02-28T14:37:02;1.53;;;1.43;;
18748;SDS011;9503;53.560;10.246;2023-02-28T14:39:33;2.20;;;1.50;;
18748;SDS011;9503;53.560;10.246;2023-02-28T14:42:01;2.10;;;1.40;;
18748;SDS011;9503;53.560;10.246;2023-02-28T14:44:30;2.00;;;1.50;;
18748;SDS011;9503;53.560;10.246;2023-02-28T14:46:57;5.93;;;1.77;;
18748;SDS011;9503;53.560;10.246;2023-02-28T14:49:29;2.57;;;1.50;;
18748;SDS011;9503;53.560;10.246;2023-02-28T14:52:07;2.67;;;1.80;;
18748;SDS011;9503;53.560;10.246;2023-02-28T14:54:41;1.77;;;1.33;;
18748;SDS011;9503;53.560;10.246;2023-02-28T14:57:19;2.03;;;1.80;;
18748;SDS011;9503;53.560;10.246;2023-02-28T14:59:56;1.70;;;1.27;;
18748;SDS011;9503;53.560;10.246;2023-02-28T15:02:24;1.90;;;1.57;;
18748;SDS011;9503;53.560;10.246;2023-02-28T15:04:52;2.43;;;1.60;;
18748;SDS011;9503;53.560;10.246;2023-02-28T15:07:22;2.10;;;1.90;;
18748;SDS011;9503;53.560;10.246;2023-02-28T15:12:45;3.03;;;1.35;;
18748;SDS011;9503;53.560;10.246;2023-02-28T15:15:19;1.98;;;1.63;;
18748;SDS011;9503;53.560;10.246;2023-02-28T15:17:49;1.48;;;1.38;;
18748;SDS011;9503;53.560;10.246;2023-02-28T15:20:18;3.80;;;2.25;;
18748;SDS011;9503;53.560;10.246;2023-02-28T15:22:47;5.95;;;3.15;;
18748;SDS011;9503;53.560;10.246;2023-02-28T15:25:18;2.67;;;1.92;;
18748;SDS011;9503;53.560;10.246;2023-02-28T15:27:47;3.08;;;1.77;;
18748;SDS011;9503;53.560;10.246;2023-02-28T15:30:17;3.15;;;2.10;;
18748;SDS011;9503;53.560;10.246;2023-02-28T15:33:01;1.90;;;1.77;;
18748;SDS011;9503;53.560;10.246;2023-02-28T15:35:31;1.73;;;1.63;;
18748;SDS011;9503;53.560;10.246;2023-02-28T15:38:01;2.65;;;2.15;;
18748;SDS011;9503;53.560;10.246;2023-02-28T15:40:31;3.50;;;1.80;;
18748;SDS011;9503;53.560;10.246;2023-02-28T15:43:05;2.13;;;1.70;;
18748;SDS011;9503;53.560;10.246;2023-02-28T15:45:37;1.90;;;1.20;;
18748;SDS011;9503;53.560;10.246;2023-02-28T15:48:13;2.70;;;1.60;;
18748;SDS011;9503;53.560;10.246;2023-02-28T15:50:43;2.42;;;1.70;;
18748;SDS011;9503;53.560;10.246;2023-02-28T15:53:16;2.73;;;1.77;;
18748;SDS011;9503;53.560;10.246;2023-02-28T15:55:45;2.63;;;1.40;;
18748;SDS011;9503;53.560;10.246;2023-02-28T15:58:20;2.93;;;1.37;;
18748;SDS011;9503;53.560;10.246;2023-02-28T16:00:59;2.43;;;1.90;;
18748;SDS011;9503;53.560;10.246;2023-02-28T16:03:34;4.30;;;1.77;;
18748;SDS011;9503;53.560;10.246;2023-02-28T16:09:05;2.63;;;1.60;;
18748;SDS011;9503;53.560;10.246;2023-02-28T16:11:35;1.90;;;1.70;;
18748;SDS011;9503;53.560;10.246;2023-02-28T16:14:06;3.73;;;1.30;;
18748;SDS011;9503;53.560;10.246;2023-02-28T16:16:33;2.57;;;1.70;;
18748;SDS011;9503;53.560;10.246;2023-02-28T16:19:00;2.57;;;1.70;;
18748;SDS011;9503;53.560;10.246;2023-02-28T16:21:26;2.23;;;1.70;;
18748;SDS011;9503;53.560;10.246;2023-02-28T16:23:53;4.90;;;1.80;;
18748;SDS011;9503;53.560;10.246;2023-02-28T16:26:22;3.07;;;1.50;;
18748;SDS011;9503;53.560;10.246;2023-02-28T16:28:52;2.30;;;1.43;;
18748;SDS011;9503;53.560;10.246;2023-02-28T16:31:19;4.10;;;1.90;;
18748;SDS011;9503;53.560;10.246;2023-02-28T16:33:46;2.57;;;2.07;;
18748;SDS011;9503;53.560;10.246;2023-02-28T16:36:14;3.80;;;2.33;;
18748;SDS011;9503;53.560;10.246;2023-02-28T16:38:43;2.47;;;2.03;;
18748;SDS011;9503;53.560;10.246;2023-02-28T16:41:11;3.37;;;2.53;;
18748;SDS011;9503;53.560;10.246;2023-02-28T16:43:45;3.00;;;2.67;;
18748;SDS011;9503;53.560;10.246;2023-02-28T16:46:14;3.27;;;2.57;;
18748;SDS011;9503;53.560;10.246;2023-02-28T16:48:41;2.97;;;2.20;;
18748;SDS011;9503;53.560;10.246;2023-02-28T16:51:11;7.43;;;2.53;;
18748;SDS011;9503;53.560;10.246;2023-02-28T16:53:38;4.13;;;2.20;;
18748;SDS011;9503;53.560;10.246;2023-02-28T16:56:05;3.97;;;2.27;;
18748;SDS011;9503;53.560;10.246;2023-02-28T16:58:33;4.33;;;2.53;;
18748;SDS011;9503;53.560;10.246;2023-02-28T17:01:02;8.00;;;3.10;;
18748;SDS011;9503;53.560;10.246;2023-02-28T17:03:29;5.37;;;3.07;;
18748;SDS011;9503;53.560;10.246;2023-02-28T17:05:55;5.87;;;2.93;;
18748;SDS011;9503;53.560;10.246;2023-02-28T17:08:22;4.33;;;2.27;;
18748;SDS011;9503;53.560;10.246;2023-02-28T17:10:49;5.40;;;3.07;;
18748;SDS011;9503;53.560;10.246;2023-02-28T17:13:16;6.10;;;4.20;;
18748;SDS011;9503;53.560;10.246;2023-02-28T17:15:42;4.87;;;2.60;;
18748;SDS011;9503;53.560;10.246;2023-02-28T17:18:13;7.13;;;2.50;;
18748;SDS011;9503;53.560;10.246;2023-02-28T17:20:41;6.27;;;3.47;;
18748;SDS011;9503;53.560;10.246;2023-02-28T17:23:08;5.07;;;2.83;;
18748;SDS011;9503;53.560;10.246;2023-02-28T17:25:35;5.37;;;2.60;;
18748;SDS011;9503;53.560;10.246;2023-02-28T17:28:01;2.30;;;1.90;;
18748;SDS011;9503;53.560;10.246;2023-02-28T17:30:28;2.53;;;1.80;;
18748;SDS011;9503;53.560;10.246;2023-02-28T17:32:55;2.13;;;1.80;;
18748;SDS011;9503;53.560;10.246;2023-02-28T17:35:23;3.73;;;2.10;;
18748;SDS011;9503;53.560;10.246;2023-02-28T17:37:51;4.43;;;1.77;;
18748;SDS011;9503;53.560;10.246;2023-02-28T17:40:19;4.67;;;1.97;;
18748;SDS011;9503;53.560;10.246;2023-02-28T17:42:47;7.17;;;3.60;;
18748;SDS011;9503;53.560;10.246;2023-02-28T17:45:14;10.63;;;5.63;;
18748;SDS011;9503;53.560;10.246;2023-02-28T17:47:42;12.27;;;5.47;;
18748;SDS011;9503;53.560;10.246;2023-02-28T17:50:12;12.03;;;5.23;;
18748;SDS011;9503;53.560;10.246;2023-02-28T17:52:43;20.30;;;9.10;;
18748;SDS011;9503;53.560;10.246;2023-02-28T17:55:10;16.30;;;7.10;;
18748;SDS011;9503;53.560;10.246;2023-02-28T17:57:37;7.97;;;4.57;;
